createdAt,value
2023-01-29T00:02:23.085Z,4.50
2023-01-29T00:04:51.219Z,4.50
2023-01-29T00:07:19.315Z,4.50
2023-01-29T00:09:47.376Z,4.50
2023-01-29T00:12:15.468Z,4.40
2023-01-29T00:14:43.519Z,4.50
2023-01-29T00:17:11.648Z,4.50
2023-01-29T00:19:41.163Z,4.50
2023-01-29T00:22:09.300Z,4.50
2023-01-29T00:24:37.440Z,4.50
2023-01-29T00:27:06.309Z,4.50
2023-01-29T00:29:34.401Z,4.50
2023-01-29T00:32:02.593Z,4.50
2023-01-29T00:34:30.731Z,4.50
2023-01-29T00:37:04.901Z,4.50
2023-01-29T00:39:47.457Z,4.50
2023-01-29T00:42:33.633Z,4.50
2023-01-29T00:45:01.742Z,4.50
2023-01-29T00:47:33.567Z,4.50
2023-01-29T00:50:02.425Z,4.50
2023-01-29T00:52:32.077Z,4.50
2023-01-29T00:55:01.495Z,4.50
2023-01-29T00:57:32.208Z,4.50
2023-01-29T01:00:00.480Z,4.50
2023-01-29T01:02:46.308Z,4.50
2023-01-29T01:05:17.954Z,4.50
2023-01-29T01:07:49.001Z,4.60
2023-01-29T01:10:21.032Z,4.50
2023-01-29T01:12:50.569Z,4.50
2023-01-29T01:15:19.810Z,4.50
2023-01-29T01:17:48.953Z,4.50
2023-01-29T01:20:17.420Z,4.50
2023-01-29T01:22:47.144Z,4.60
2023-01-29T01:25:15.483Z,4.60
2023-01-29T01:27:43.535Z,4.60
2023-01-29T01:30:14.983Z,4.60
2023-01-29T01:32:44.075Z,4.60
2023-01-29T01:35:14.768Z,4.50
2023-01-29T01:37:43.110Z,4.60
2023-01-29T01:40:18.640Z,4.60
2023-01-29T01:42:50.285Z,4.60
2023-01-29T01:45:24.386Z,4.60
2023-01-29T01:47:57.245Z,4.50
2023-01-29T01:50:30.969Z,4.50
2023-01-29T01:53:04.123Z,4.50
2023-01-29T01:55:36.491Z,4.50
2023-01-29T01:58:09.938Z,4.50
2023-01-29T02:00:38.167Z,4.50
2023-01-29T02:03:24.431Z,4.50
2023-01-29T02:06:11.879Z,4.60
2023-01-29T02:09:05.470Z,4.50
2023-01-29T02:11:35.015Z,4.50
2023-01-29T02:14:03.632Z,4.50
2023-01-29T02:16:31.858Z,4.60
2023-01-29T02:19:00.069Z,4.60
2023-01-29T02:21:44.992Z,4.60
2023-01-29T02:24:40.426Z,4.60
2023-01-29T02:27:15.088Z,4.60
2023-01-29T02:29:54.390Z,4.60
2023-01-29T02:32:30.699Z,4.60
2023-01-29T02:35:29.768Z,4.60
2023-01-29T02:38:10.191Z,4.60
2023-01-29T02:40:44.612Z,4.60
2023-01-29T02:43:25.150Z,4.60
2023-01-29T02:46:02.640Z,4.60
2023-01-29T02:48:40.153Z,4.60
2023-01-29T02:51:12.611Z,4.60
2023-01-29T02:53:46.453Z,4.60
2023-01-29T02:56:19.394Z,4.60
2023-01-29T02:58:53.862Z,4.60
2023-01-29T03:01:30.334Z,4.60
2023-01-29T03:04:03.667Z,4.60
2023-01-29T03:06:34.480Z,4.60
2023-01-29T03:09:05.843Z,4.60
2023-01-29T03:11:40.194Z,4.60
2023-01-29T03:14:13.270Z,4.60
2023-01-29T03:16:47.526Z,4.60
2023-01-29T03:19:20.349Z,4.70
2023-01-29T03:22:00.198Z,4.70
2023-01-29T03:24:53.850Z,4.70
2023-01-29T03:27:43.441Z,4.60
2023-01-29T03:30:32.236Z,4.60
2023-01-29T03:33:07.597Z,4.60
2023-01-29T03:35:39.658Z,4.70
2023-01-29T03:38:10.648Z,4.70
2023-01-29T03:40:45.376Z,4.60
2023-01-29T03:43:21.942Z,4.60
2023-01-29T03:46:02.626Z,4.70
2023-01-29T03:48:36.664Z,4.70
2023-01-29T03:51:17.062Z,4.70
2023-01-29T03:53:50.225Z,4.70
2023-01-29T03:56:28.763Z,4.70
2023-01-29T03:59:01.937Z,4.70
2023-01-29T04:01:34.528Z,4.70
2023-01-29T04:04:11.231Z,4.70
2023-01-29T04:06:43.171Z,4.70
2023-01-29T04:09:15.735Z,4.70
2023-01-29T04:11:48.930Z,4.70
2023-01-29T04:14:17.964Z,4.70
2023-01-29T04:16:49.482Z,4.70
2023-01-29T04:19:19.410Z,4.70
2023-01-29T04:21:49.726Z,4.70
2023-01-29T04:24:18.928Z,4.70
2023-01-29T04:27:05.550Z,4.80
2023-01-29T04:29:50.305Z,4.80
2023-01-29T04:32:24.430Z,4.80
2023-01-29T04:35:07.786Z,4.80
2023-01-29T04:37:41.740Z,4.80
2023-01-29T04:40:21.404Z,4.80
2023-01-29T04:42:57.075Z,4.80
2023-01-29T04:45:34.661Z,4.80
2023-01-29T04:48:18.977Z,4.80
2023-01-29T04:50:57.586Z,4.80
2023-01-29T04:53:29.548Z,4.80
2023-01-29T04:56:02.426Z,4.80
2023-01-29T04:58:33.815Z,4.80
2023-01-29T05:01:06.524Z,4.80
2023-01-29T05:03:37.419Z,4.80
2023-01-29T05:06:09.106Z,4.80
2023-01-29T05:08:40.301Z,4.80
2023-01-29T05:11:08.713Z,4.70
2023-01-29T05:13:40.047Z,4.70
2023-01-29T05:16:14.467Z,4.70
2023-01-29T05:18:42.720Z,4.70
2023-01-29T05:21:13.738Z,4.70
2023-01-29T05:23:59.395Z,4.70
2023-01-29T05:26:46.237Z,4.70
2023-01-29T05:29:14.295Z,4.70
2023-01-29T05:31:45.529Z,4.70
2023-01-29T05:34:13.732Z,4.70
2023-01-29T05:36:48.697Z,4.70
2023-01-29T05:39:17.038Z,4.70
2023-01-29T05:41:45.239Z,4.70
2023-01-29T05:44:13.824Z,4.70
2023-01-29T05:46:42.048Z,4.70
2023-01-29T05:49:10.380Z,4.70
2023-01-29T05:51:38.521Z,4.70
2023-01-29T05:54:07.988Z,4.70
2023-01-29T05:56:36.067Z,4.70
2023-01-29T05:59:04.124Z,4.70
2023-01-29T06:01:32.270Z,4.70
2023-01-29T06:04:00.349Z,4.70
2023-01-29T06:06:28.578Z,4.70
2023-01-29T06:08:57.781Z,4.70
2023-01-29T06:11:27.573Z,4.70
2023-01-29T06:13:55.633Z,4.70
2023-01-29T06:16:23.735Z,4.70
2023-01-29T06:18:51.917Z,4.70
2023-01-29T06:21:20.305Z,4.70
2023-01-29T06:23:48.382Z,4.60
2023-01-29T06:26:17.179Z,4.70
2023-01-29T06:28:49.330Z,4.70
2023-01-29T06:31:37.983Z,4.70
2023-01-29T06:34:06.776Z,4.70
2023-01-29T06:36:34.959Z,4.60
2023-01-29T06:39:03.967Z,4.60
2023-01-29T06:41:32.111Z,4.60
2023-01-29T06:44:01.582Z,4.60
2023-01-29T06:46:29.668Z,4.60
2023-01-29T06:49:00.266Z,4.60
2023-01-29T06:51:28.416Z,4.60
2023-01-29T06:53:56.533Z,4.60
2023-01-29T06:56:24.977Z,4.60
2023-01-29T06:58:53.109Z,4.60
2023-01-29T07:01:35.122Z,4.70
2023-01-29T07:04:04.478Z,4.70
2023-01-29T07:06:32.960Z,4.70
2023-01-29T07:09:01.215Z,4.70
2023-01-29T07:11:29.336Z,4.70
2023-01-29T07:13:57.597Z,4.70
2023-01-29T07:16:27.400Z,4.70
2023-01-29T07:18:55.542Z,4.70
2023-01-29T07:21:23.661Z,4.70
2023-01-29T07:23:51.886Z,4.70
2023-01-29T07:26:20.011Z,4.70
2023-01-29T07:28:48.180Z,4.70
2023-01-29T07:31:16.536Z,4.70
2023-01-29T07:33:46.632Z,4.80
2023-01-29T07:36:15.815Z,4.80
2023-01-29T07:38:43.977Z,4.80
2023-01-29T07:41:13.726Z,4.80
2023-01-29T07:43:41.816Z,4.80
2023-01-29T07:46:10.154Z,4.80
2023-01-29T07:48:38.286Z,4.80
2023-01-29T07:51:07.929Z,4.80
2023-01-29T07:53:37.053Z,4.90
2023-01-29T07:56:05.668Z,4.90
2023-01-29T07:58:35.757Z,4.90
2023-01-29T08:01:07.485Z,4.90
2023-01-29T08:03:35.871Z,4.80
2023-01-29T08:06:04.690Z,4.90
2023-01-29T08:08:34.190Z,4.90
2023-01-29T08:11:03.405Z,5.00
2023-01-29T08:13:31.606Z,5.00
2023-01-29T08:16:01.912Z,5.00
2023-01-29T08:18:31.540Z,5.00
2023-01-29T08:21:03.270Z,5.00
2023-01-29T08:23:33.185Z,5.00
2023-01-29T08:26:03.152Z,5.00
2023-01-29T08:28:31.392Z,5.10
2023-01-29T08:30:59.717Z,5.10
2023-01-29T08:36:18.156Z,5.10
2023-01-29T08:38:47.855Z,5.20
2023-01-29T08:41:15.967Z,5.20
2023-01-29T08:43:44.218Z,5.20
2023-01-29T08:46:12.357Z,5.20
2023-01-29T08:48:41.058Z,5.20
2023-01-29T08:51:09.986Z,5.20
2023-01-29T08:53:38.260Z,5.30
2023-01-29T08:56:08.413Z,5.30
2023-01-29T08:58:36.565Z,5.30
2023-01-29T09:01:08.597Z,5.30
2023-01-29T09:03:37.192Z,5.30
2023-01-29T09:06:05.665Z,5.30
2023-01-29T09:08:33.825Z,5.40
2023-01-29T09:11:01.901Z,5.40
2023-01-29T09:13:32.288Z,5.40
2023-01-29T09:16:01.359Z,5.40
2023-01-29T09:18:30.024Z,5.40
2023-01-29T09:20:58.926Z,5.50
2023-01-29T09:23:27.091Z,5.50
2023-01-29T09:25:55.173Z,5.50
2023-01-29T09:28:24.069Z,5.50
2023-01-29T09:30:53.655Z,5.60
2023-01-29T09:33:21.927Z,5.60
2023-01-29T09:35:50.034Z,5.70
2023-01-29T09:38:18.115Z,5.70
2023-01-29T09:40:56.969Z,5.80
2023-01-29T09:43:30.462Z,5.80
2023-01-29T09:46:02.839Z,5.80
2023-01-29T09:48:35.588Z,5.90
2023-01-29T09:51:08.363Z,5.90
2023-01-29T09:53:41.600Z,6.00
2023-01-29T09:56:15.677Z,6.10
2023-01-29T09:58:45.212Z,6.10
2023-01-29T10:01:23.114Z,6.10
2023-01-29T10:04:13.927Z,6.10
2023-01-29T10:06:55.717Z,6.10
2023-01-29T10:09:40.646Z,6.20
2023-01-29T10:12:22.245Z,6.20
2023-01-29T10:14:58.075Z,6.20
2023-01-29T10:17:44.913Z,6.30
2023-01-29T10:20:40.664Z,6.30
2023-01-29T10:23:21.944Z,6.40
2023-01-29T10:25:50.895Z,6.50
2023-01-29T10:28:21.787Z,6.60
2023-01-29T10:30:52.278Z,6.70
2023-01-29T10:33:26.702Z,6.70
2023-01-29T10:35:58.209Z,6.70
2023-01-29T10:38:38.576Z,6.70
2023-01-29T10:41:30.696Z,6.70
2023-01-29T10:44:14.852Z,6.80
2023-01-29T10:46:55.097Z,6.80
2023-01-29T10:49:43.058Z,6.80
2023-01-29T10:52:22.593Z,6.90
2023-01-29T10:55:02.722Z,7.00
2023-01-29T10:57:44.850Z,7.10
2023-01-29T11:00:18.939Z,7.20
2023-01-29T11:02:50.381Z,7.20
2023-01-29T11:05:26.217Z,7.30
2023-01-29T11:08:06.541Z,7.40
2023-01-29T11:10:40.243Z,7.50
2023-01-29T11:13:12.670Z,7.60
2023-01-29T11:15:40.854Z,7.70
2023-01-29T11:18:13.971Z,7.70
2023-01-29T11:20:45.178Z,7.80
2023-01-29T11:23:27.513Z,7.80
2023-01-29T11:25:56.818Z,7.90
2023-01-29T11:28:42.180Z,8.00
2023-01-29T11:31:26.130Z,8.00
2023-01-29T11:34:04.225Z,8.00
2023-01-29T11:36:38.277Z,8.00
2023-01-29T11:39:18.542Z,8.00
2023-01-29T11:41:51.262Z,8.00
2023-01-29T11:44:33.972Z,8.00
2023-01-29T11:47:13.310Z,8.10
2023-01-29T11:49:46.265Z,8.10
2023-01-29T11:52:18.211Z,8.10
2023-01-29T11:54:51.877Z,8.20
2023-01-29T11:57:32.695Z,8.20
2023-01-29T12:00:04.183Z,8.20
2023-01-29T12:02:37.172Z,8.20
2023-01-29T12:05:15.461Z,8.30
2023-01-29T12:07:46.216Z,8.30
2023-01-29T12:10:33.479Z,8.40
2023-01-29T12:13:21.297Z,8.40
2023-01-29T12:15:50.927Z,8.40
2023-01-29T12:18:29.827Z,8.40
2023-01-29T12:21:01.202Z,8.40
2023-01-29T12:23:37.509Z,8.40
2023-01-29T12:26:10.657Z,8.40
2023-01-29T12:28:47.604Z,8.40
2023-01-29T12:31:30.222Z,8.40
2023-01-29T12:34:06.750Z,8.40
2023-01-29T12:36:39.557Z,8.30
2023-01-29T12:39:11.859Z,8.30
2023-01-29T12:41:46.273Z,8.30
2023-01-29T12:44:18.041Z,8.30
2023-01-29T12:46:50.512Z,8.40
2023-01-29T12:49:24.354Z,8.40
2023-01-29T12:51:57.322Z,8.30
2023-01-29T12:54:33.446Z,8.30
2023-01-29T12:57:05.655Z,8.20
2023-01-29T12:59:40.648Z,8.20
2023-01-29T13:02:20.122Z,8.10
2023-01-29T13:04:54.501Z,8.00
2023-01-29T13:07:29.321Z,8.00
2023-01-29T13:10:05.672Z,7.90
2023-01-29T13:12:35.851Z,7.90
2023-01-29T13:15:11.518Z,7.90
2023-01-29T13:17:43.898Z,7.90
2023-01-29T13:20:17.929Z,7.80
2023-01-29T13:22:48.138Z,7.80
2023-01-29T13:25:20.098Z,7.80
2023-01-29T13:27:49.633Z,7.80
2023-01-29T13:30:29.595Z,7.80
2023-01-29T13:33:09.449Z,7.80
2023-01-29T13:35:40.683Z,7.90
2023-01-29T13:38:24.320Z,7.90
2023-01-29T13:40:56.196Z,7.90
2023-01-29T13:43:25.205Z,7.80
2023-01-29T13:45:55.606Z,7.80
2023-01-29T13:48:27.513Z,7.70
2023-01-29T13:50:57.797Z,7.70
2023-01-29T13:53:28.393Z,7.70
2023-01-29T13:56:30.952Z,7.70
2023-01-29T13:58:59.830Z,7.60
2023-01-29T14:02:05.407Z,7.50
2023-01-29T14:04:34.231Z,7.50
2023-01-29T14:07:04.238Z,7.40
2023-01-29T14:10:02.750Z,7.40
2023-01-29T14:12:41.425Z,7.40
2023-01-29T14:15:34.312Z,7.40
2023-01-29T14:18:20.265Z,7.40
2023-01-29T14:21:03.222Z,7.30
2023-01-29T14:23:42.365Z,7.30
2023-01-29T14:26:27.444Z,7.40
2023-01-29T14:29:01.759Z,7.40
2023-01-29T14:31:40.623Z,7.40
2023-01-29T14:34:19.616Z,7.40
2023-01-29T14:36:55.322Z,7.30
2023-01-29T14:39:35.966Z,7.30
2023-01-29T14:42:15.375Z,7.30
2023-01-29T14:45:23.725Z,7.30
2023-01-29T14:48:29.217Z,7.20
2023-01-29T14:51:09.677Z,7.10
2023-01-29T14:54:02.547Z,7.10
2023-01-29T14:56:35.904Z,7.00
2023-01-29T14:59:15.807Z,7.00
2023-01-29T15:01:49.597Z,7.00
2023-01-29T15:04:22.174Z,6.90
2023-01-29T15:06:56.382Z,6.90
2023-01-29T15:09:36.654Z,6.90
2023-01-29T15:12:14.767Z,6.90
2023-01-29T15:14:49.530Z,6.90
2023-01-29T15:17:26.772Z,6.90
2023-01-29T15:19:56.815Z,6.90
2023-01-29T15:22:26.411Z,6.90
2023-01-29T15:25:07.384Z,6.90
2023-01-29T15:27:35.887Z,6.90
2023-01-29T15:30:08.066Z,6.80
2023-01-29T15:32:40.792Z,6.90
2023-01-29T15:35:11.161Z,6.80
2023-01-29T15:37:39.616Z,6.80
2023-01-29T15:40:15.512Z,6.80
2023-01-29T15:42:46.728Z,6.80
2023-01-29T15:45:31.150Z,6.80
2023-01-29T15:48:06.101Z,6.80
2023-01-29T15:50:37.717Z,6.80
2023-01-29T15:53:09.328Z,6.70
2023-01-29T15:55:37.907Z,6.70
2023-01-29T15:58:06.250Z,6.70
2023-01-29T16:00:34.434Z,6.60
2023-01-29T16:03:16.005Z,6.60
2023-01-29T16:05:44.421Z,6.60
2023-01-29T16:08:14.958Z,6.60
2023-01-29T16:10:45.118Z,6.60
2023-01-29T16:13:21.074Z,6.60
2023-01-29T16:15:56.842Z,6.60
2023-01-29T16:18:31.422Z,6.50
2023-01-29T16:21:02.561Z,6.50
2023-01-29T16:23:36.169Z,6.50
2023-01-29T16:26:08.727Z,6.50
2023-01-29T16:28:42.154Z,6.50
2023-01-29T16:31:12.124Z,6.50
2023-01-29T16:33:45.460Z,6.50
2023-01-29T16:36:19.009Z,6.50
2023-01-29T16:38:50.932Z,6.50
2023-01-29T16:41:31.992Z,6.50
2023-01-29T16:44:02.277Z,6.50
2023-01-29T16:46:36.429Z,6.50
2023-01-29T16:49:45.206Z,6.50
2023-01-29T16:52:23.896Z,6.50
2023-01-29T16:54:52.228Z,6.40
2023-01-29T16:57:25.427Z,6.40
2023-01-29T16:59:56.743Z,6.40
2023-01-29T17:02:28.543Z,6.40
2023-01-29T17:05:02.910Z,6.50
2023-01-29T17:07:32.641Z,6.50
2023-01-29T17:10:02.992Z,6.50
2023-01-29T17:12:32.878Z,6.50
2023-01-29T17:15:05.976Z,6.50
2023-01-29T17:17:35.923Z,6.50
2023-01-29T17:20:14.850Z,6.50
2023-01-29T17:22:42.983Z,6.50
2023-01-29T17:25:15.306Z,6.50
2023-01-29T17:27:45.447Z,6.50
2023-01-29T17:30:16.527Z,6.40
2023-01-29T17:32:47.359Z,6.50
2023-01-29T17:35:18.217Z,6.40
2023-01-29T17:37:46.553Z,6.40
2023-01-29T17:40:21.588Z,6.50
2023-01-29T17:42:49.727Z,6.50
2023-01-29T17:45:18.050Z,6.50
2023-01-29T17:47:46.386Z,6.50
2023-01-29T17:50:23.716Z,6.50
2023-01-29T17:52:52.690Z,6.50
2023-01-29T17:55:21.127Z,6.50
2023-01-29T17:57:49.387Z,6.40
2023-01-29T18:00:19.237Z,6.40
2023-01-29T18:02:47.380Z,6.40
2023-01-29T18:05:17.022Z,6.40
2023-01-29T18:07:48.248Z,6.40
2023-01-29T18:10:20.196Z,6.40
2023-01-29T18:12:48.664Z,6.40
2023-01-29T18:15:17.175Z,6.40
2023-01-29T18:17:45.719Z,6.30
2023-01-29T18:20:22.659Z,6.30
2023-01-29T18:22:52.409Z,6.30
2023-01-29T18:25:21.002Z,6.20
2023-01-29T18:27:49.329Z,6.20
2023-01-29T18:30:17.977Z,6.20
2023-01-29T18:32:47.497Z,6.20
2023-01-29T18:35:16.189Z,6.20
2023-01-29T18:37:44.623Z,6.20
2023-01-29T18:40:17.271Z,6.30
2023-01-29T18:42:45.709Z,6.20
2023-01-29T18:45:15.485Z,6.20
2023-01-29T18:47:44.111Z,6.20
2023-01-29T18:50:12.715Z,6.20
2023-01-29T18:52:41.365Z,6.20
2023-01-29T18:55:10.830Z,6.20
2023-01-29T18:58:27.380Z,6.20
2023-01-29T19:00:28.541Z,6.20
2023-01-29T19:02:56.605Z,6.20
2023-01-29T19:05:25.679Z,6.20
2023-01-29T19:07:53.763Z,6.30
2023-01-29T19:10:22.671Z,6.20
2023-01-29T19:12:52.109Z,6.20
2023-01-29T19:15:22.023Z,6.20
2023-01-29T19:17:51.715Z,6.20
2023-01-29T19:20:20.268Z,6.20
2023-01-29T19:22:48.615Z,6.20
2023-01-29T19:25:17.683Z,6.20
2023-01-29T19:27:46.102Z,6.20
2023-01-29T19:30:16.074Z,6.20
2023-01-29T19:32:44.197Z,6.20
2023-01-29T19:35:12.362Z,6.20
2023-01-29T19:37:40.634Z,6.20
2023-01-29T19:40:09.917Z,6.20
2023-01-29T19:42:38.475Z,6.10
2023-01-29T19:45:07.597Z,6.10
2023-01-29T19:47:42.835Z,6.20
2023-01-29T19:50:12.616Z,6.10
2023-01-29T19:52:51.518Z,6.10
2023-01-29T19:55:21.400Z,6.20
2023-01-29T19:57:49.777Z,6.20
2023-01-29T20:00:19.621Z,6.20
2023-01-29T20:02:49.138Z,6.10
2023-01-29T20:05:18.557Z,6.10
2023-01-29T20:07:46.958Z,6.10
2023-01-29T20:10:18.016Z,6.10
2023-01-29T20:12:47.163Z,6.10
2023-01-29T20:15:16.105Z,6.10
2023-01-29T20:17:45.718Z,6.00
2023-01-29T20:20:16.980Z,6.00
2023-01-29T20:22:45.505Z,6.00
2023-01-29T20:25:14.664Z,6.00
2023-01-29T20:27:43.285Z,6.00
2023-01-29T20:30:12.929Z,6.00
2023-01-29T20:32:41.069Z,6.10
2023-01-29T20:35:10.577Z,6.20
2023-01-29T20:37:40.066Z,6.20
2023-01-29T20:40:09.216Z,6.20
2023-01-29T20:42:37.314Z,6.10
2023-01-29T20:45:06.152Z,6.10
2023-01-29T20:47:34.200Z,6.10
2023-01-29T20:50:08.456Z,6.10
2023-01-29T20:52:36.908Z,6.10
2023-01-29T20:55:08.800Z,6.10
2023-01-29T20:57:37.641Z,6.10
2023-01-29T21:00:06.719Z,6.00
2023-01-29T21:02:34.952Z,6.10
2023-01-29T21:05:03.025Z,6.10
2023-01-29T21:07:31.125Z,6.10
2023-01-29T21:09:59.270Z,6.10
2023-01-29T21:12:28.736Z,6.10
2023-01-29T21:14:56.791Z,6.10
2023-01-29T21:17:27.178Z,6.10
2023-01-29T21:19:56.108Z,6.10
2023-01-29T21:22:25.726Z,6.10
2023-01-29T21:24:53.816Z,6.10
2023-01-29T21:27:21.956Z,6.10
2023-01-29T21:29:51.509Z,6.10
2023-01-29T21:32:19.821Z,6.20
2023-01-29T21:34:47.863Z,6.20
2023-01-29T21:37:15.941Z,6.10
2023-01-29T21:39:44.042Z,6.10
2023-01-29T21:42:29.434Z,6.10
2023-01-29T21:44:58.895Z,6.10
2023-01-29T21:47:26.974Z,6.00
2023-01-29T21:49:55.081Z,6.00
2023-01-29T21:52:23.155Z,6.00
2023-01-29T21:54:51.412Z,6.00
2023-01-29T21:57:19.505Z,6.00
2023-01-29T21:59:52.422Z,6.00
2023-01-29T22:02:23.946Z,6.10
2023-01-29T22:04:52.384Z,6.00
2023-01-29T22:07:20.580Z,6.00
2023-01-29T22:09:48.806Z,6.10
2023-01-29T22:12:16.950Z,6.10
2023-01-29T22:14:46.063Z,6.10
2023-01-29T22:17:14.282Z,6.00
2023-01-29T22:19:43.873Z,6.00
2023-01-29T22:22:15.305Z,6.00
2023-01-29T22:24:44.792Z,6.00
2023-01-29T22:27:13.251Z,6.00
2023-01-29T22:29:41.362Z,6.00
2023-01-29T22:32:11.062Z,6.00
2023-01-29T22:34:39.182Z,6.00
2023-01-29T22:37:08.935Z,6.00
2023-01-29T22:39:37.050Z,6.00
2023-01-29T22:42:05.328Z,6.00
2023-01-29T22:44:33.398Z,6.00
2023-01-29T22:47:01.894Z,6.00
2023-01-29T22:49:31.602Z,6.00
2023-01-29T22:52:11.909Z,6.00
2023-01-29T22:54:42.662Z,6.00
2023-01-29T22:57:12.346Z,5.90
2023-01-29T22:59:40.471Z,6.00
2023-01-29T23:02:09.525Z,6.00
2023-01-29T23:04:38.085Z,5.90
2023-01-29T23:07:06.209Z,6.00
2023-01-29T23:09:34.323Z,6.00
2023-01-29T23:12:03.794Z,6.00
2023-01-29T23:14:31.862Z,6.00
2023-01-29T23:17:00.001Z,6.00
2023-01-29T23:19:30.047Z,6.00
2023-01-29T23:21:58.296Z,6.00
2023-01-29T23:24:26.545Z,6.00
2023-01-29T23:27:12.126Z,6.00
2023-01-29T23:29:42.237Z,6.00
2023-01-29T23:32:10.691Z,5.90
2023-01-29T23:34:38.764Z,5.90
2023-01-29T23:37:07.410Z,5.90
2023-01-29T23:39:35.569Z,5.90
2023-01-29T23:42:04.014Z,5.80
2023-01-29T23:44:32.426Z,5.80
2023-01-29T23:47:01.903Z,5.80
2023-01-29T23:49:29.825Z,5.80
2023-01-29T23:51:57.994Z,5.80
2023-01-29T23:54:26.141Z,5.80
2023-01-29T23:56:54.032Z,5.80
2023-01-29T23:59:22.156Z,5.80
